Hlavní strana
METAR-TAF:

METAR-TAF

Letiště :

Pittsfield Penstone Municipal Airport

Pittsfield, Illinois, Spojené státy americké

zeměpisná šířka: 39-38-20N, zeměpisná délka: 090-46-42W, výška: 216 m

Aktuální stav počasí

Zpráva byla vytvořena před 26 minutami, v 10:35 UTC
Bezvětří
Teplota 0°C
Vlhkost vzduchu 100%
Tlak 1009 hPa
Viditelnost: 0.8 km
Zataženo ve výšce 200 ft

METAR: KPPQ 241035Z AUTO 00000KT 1/2SM OVC002 00/00 A2981 RMK AO2 T00010001

Čas: 05:01 (11:01 UTC)


TAF: chybějící

Stav a předpovědi počasí z více než 4 000 letišť (zprávy METAR a TAF).

Červené a žluté tečky na mapě představují dostupné meteorologické stanice.

Když kurzor umístíte na tečku, zobrazí se název stanice.

Pak kliknutím zobrazíte stav a předpověď počasí.

Chcete-li změnit mapu, kliknutím na zelené tlačítko se znaménkem +mapu přiblížíte, kliknutím na zelené tlačítko se znaménkem – mapu oddálíte a kliknutím na zelené šipky přejdete na sousední mapy.


METAR-TAF: